Lackland AFB, Texas
Current Conditions -  °F | °C
As of 3:58 AM on Saturday 25 Oct 2014 (Local Time) from KSKF Reporting Station
Clear Clear  
Wind Chill: 61°   Ceiling: Unl
Heat Index: 61°   Visibility: 10mi
Dew Point: 56°   Wind: 0mph
Humidity: 84%   Direction: NA
Pressure: 30.13"   Gusts: NA
Location:  29.3853°N, 98.6099°W
Report Text: KSKF 250858Z AUTO 00000KT 10SM CLR 16/13 A3013 RMK AO2 SLP197 T01610134 58002 $
Loading
Personal Weather Stations






























Interactive Weather Map
Tropical Storm Tracking
New forecast layout! Learn more

10-Day Weather Forecast

Advertisements
Track Severe Weather on mobile